createdAt,value
2022-11-16T00:00:34.880Z,99999.55
2022-11-16T00:01:35.724Z,99999.34
2022-11-16T00:02:36.248Z,99998.59
2022-11-16T00:03:36.132Z,99998.34
2022-11-16T00:04:37.980Z,99998.43
2022-11-16T00:05:38.835Z,99998.55
2022-11-16T00:06:39.337Z,99998.14
2022-11-16T00:07:40.149Z,99998.23
2022-11-16T00:08:40.367Z,99998.56
2022-11-16T00:09:41.251Z,99999.07
2022-11-16T00:10:41.508Z,99999.24
2022-11-16T00:11:42.346Z,99999.75
2022-11-16T00:12:43.005Z,99999.91
2022-11-16T00:13:42.770Z,100000.33
2022-11-16T00:14:43.137Z,100000.59
2022-11-16T00:15:44.280Z,100001.19
2022-11-16T00:16:45.093Z,100001.41
2022-11-16T00:17:45.595Z,100001.49
2022-11-16T00:17:54.275Z,100021.94
2022-11-16T00:18:56.045Z,100021.52
2022-11-16T00:19:56.365Z,100021.09
2022-11-16T00:20:56.935Z,100019.91
2022-11-16T00:21:57.522Z,100018.98
2022-11-16T00:22:57.962Z,100017.97
2022-11-16T00:23:57.322Z,100016.78
2022-11-16T00:24:58.872Z,100015.86
2022-11-16T00:25:59.478Z,100015.02
2022-11-16T00:26:59.868Z,100014.84
2022-11-16T00:28:00.258Z,100014.92
2022-11-16T00:29:00.476Z,100014.75
2022-11-16T00:29:59.641Z,100014.25
2022-11-16T00:31:01.605Z,100014.08
2022-11-16T00:32:02.400Z,100013.91
2022-11-16T00:33:03.904Z,100013.91
2022-11-16T00:34:03.695Z,100013.91
2022-11-16T00:35:04.577Z,100014.08
2022-11-16T00:35:13.191Z,100027.30
2022-11-16T00:36:14.665Z,100027.47
2022-11-16T00:37:15.607Z,100026.23
2022-11-16T00:38:16.011Z,100025.22
2022-11-16T00:39:16.414Z,100024.38
2022-11-16T00:40:16.796Z,100023.87
2022-11-16T00:41:17.457Z,100022.86
2022-11-16T00:42:17.995Z,100022.19
2022-11-16T00:43:18.452Z,100021.17
2022-11-16T00:44:18.624Z,100020.71
2022-11-16T00:45:18.146Z,100019.15
2022-11-16T00:46:19.387Z,100018.81
2022-11-16T00:47:19.934Z,100018.13
2022-11-16T00:48:20.404Z,100017.84
2022-11-16T00:49:20.580Z,100017.50
2022-11-16T00:50:21.238Z,100017.34
2022-11-16T00:51:20.518Z,100016.61
2022-11-16T00:52:21.996Z,100016.66
2022-11-16T00:53:21.475Z,100015.98
2022-11-16T00:53:30.084Z,100021.89
2022-11-16T00:54:31.409Z,100022.23
2022-11-16T00:55:31.249Z,100021.17
2022-11-16T00:56:32.630Z,100020.71
2022-11-16T00:57:33.491Z,100019.87
2022-11-16T00:58:34.233Z,100018.52
2022-11-16T00:59:33.217Z,100017.92
2022-11-16T01:00:34.037Z,100017.08
2022-11-16T01:01:35.615Z,100016.06
2022-11-16T01:02:34.990Z,100015.47
2022-11-16T01:03:36.322Z,100014.96
2022-11-16T01:04:36.508Z,100014.88
2022-11-16T01:05:35.807Z,100014.63
2022-11-16T01:06:37.418Z,100014.63
2022-11-16T01:07:38.065Z,100014.12
2022-11-16T01:08:37.411Z,100013.61
2022-11-16T01:09:38.063Z,100013.53
2022-11-16T01:10:39.546Z,100013.87
2022-11-16T01:11:40.110Z,100014.20
2022-11-16T01:12:40.445Z,100014.80
2022-11-16T01:13:40.810Z,100014.63
2022-11-16T01:13:49.399Z,100029.76
2022-11-16T01:14:50.818Z,100030.27
2022-11-16T01:15:51.495Z,100028.50
2022-11-16T01:16:51.778Z,100028.08
2022-11-16T01:17:52.148Z,100027.06
2022-11-16T01:18:52.442Z,100026.14
2022-11-16T01:19:51.761Z,100025.00
2022-11-16T01:20:53.330Z,100023.91
2022-11-16T01:21:53.924Z,100022.98
2022-11-16T01:22:54.564Z,100022.23
2022-11-16T01:23:54.957Z,100021.94
2022-11-16T01:24:55.858Z,100021.61
2022-11-16T01:25:56.272Z,100021.91
2022-11-16T01:26:56.799Z,100021.91
2022-11-16T01:27:57.160Z,100022.55
2022-11-16T01:28:57.719Z,100022.63
2022-11-16T01:29:58.450Z,100022.89
2022-11-16T01:30:57.746Z,100022.64
2022-11-16T01:31:59.394Z,100023.49
2022-11-16T01:33:00.274Z,100023.78
2022-11-16T01:33:08.858Z,100044.37
2022-11-16T01:34:10.179Z,100045.05
2022-11-16T01:35:10.938Z,100043.62
2022-11-16T01:36:14.577Z,100043.19
2022-11-16T01:37:10.936Z,100041.76
2022-11-16T01:38:11.780Z,100040.58
2022-11-16T01:39:12.306Z,100040.41
2022-11-16T01:40:13.874Z,100039.73
2022-11-16T01:41:14.431Z,100039.81
2022-11-16T01:42:14.831Z,100039.98
2022-11-16T01:43:14.398Z,100040.56
2022-11-16T01:44:15.979Z,100040.39
2022-11-16T01:45:15.489Z,100040.44
2022-11-16T01:46:16.032Z,100040.27
2022-11-16T01:47:17.516Z,100040.36
2022-11-16T01:48:17.413Z,100040.52
2022-11-16T01:49:17.627Z,100040.27
2022-11-16T01:50:17.845Z,100040.98
2022-11-16T01:51:19.495Z,100041.16
2022-11-16T01:52:19.664Z,100041.73
2022-11-16T01:53:19.898Z,100041.57
2022-11-16T01:53:28.898Z,100061.22
2022-11-16T01:54:29.066Z,100061.30
2022-11-16T01:55:29.320Z,100060.80
2022-11-16T01:56:30.798Z,100060.22
2022-11-16T01:57:31.324Z,100059.16
2022-11-16T01:58:31.302Z,100058.52
2022-11-16T01:59:31.321Z,100058.02
2022-11-16T02:00:32.624Z,100056.88
2022-11-16T02:01:32.007Z,100056.88
2022-11-16T02:02:32.380Z,100056.38
2022-11-16T02:03:33.539Z,100056.67
2022-11-16T02:04:32.861Z,100057.52
2022-11-16T02:05:33.253Z,100057.61
2022-11-16T02:06:34.716Z,100057.44
2022-11-16T02:07:35.434Z,100057.44
2022-11-16T02:08:35.019Z,100057.70
2022-11-16T02:09:34.965Z,100057.53
2022-11-16T02:10:35.823Z,100057.31
2022-11-16T02:11:37.185Z,100057.66
2022-11-16T02:12:36.712Z,100057.87
2022-11-16T02:13:38.210Z,100058.16
2022-11-16T02:14:37.272Z,100058.92
2022-11-16T02:15:38.490Z,100059.77
2022-11-16T02:16:37.820Z,100060.78
2022-11-16T02:17:39.138Z,100062.13
2022-11-16T02:17:47.750Z,100100.36
2022-11-16T02:18:48.141Z,100100.62
2022-11-16T02:19:49.245Z,100099.27
2022-11-16T02:20:48.419Z,100098.50
2022-11-16T02:21:49.769Z,100097.15
2022-11-16T02:22:49.024Z,100095.80
2022-11-16T02:23:50.303Z,100093.53
2022-11-16T02:24:50.532Z,100092.01
2022-11-16T02:25:50.615Z,100090.83
2022-11-16T02:26:50.995Z,100089.81
2022-11-16T02:27:51.727Z,100088.80
2022-11-16T02:28:52.165Z,100087.79
2022-11-16T02:29:52.978Z,100086.95
2022-11-16T02:30:53.285Z,100086.69
2022-11-16T02:31:52.482Z,100085.67
2022-11-16T02:32:53.628Z,100085.21
2022-11-16T02:33:53.887Z,100084.32
2022-11-16T02:34:53.374Z,100084.37
2022-11-16T02:35:53.724Z,100083.53
2022-11-16T02:36:55.036Z,100082.52
2022-11-16T02:37:55.283Z,100082.25
2022-11-16T02:38:54.708Z,100081.66
2022-11-16T02:39:55.052Z,100080.81
2022-11-16T02:40:03.683Z,100095.99
2022-11-16T02:41:05.488Z,100095.91
2022-11-16T02:42:04.688Z,100094.90
2022-11-16T02:43:06.168Z,100093.22
2022-11-16T02:44:06.671Z,100091.61
2022-11-16T02:45:05.906Z,100090.09
2022-11-16T02:46:07.350Z,100088.91
2022-11-16T02:47:06.461Z,100087.39
2022-11-16T02:48:08.319Z,100086.05
2022-11-16T02:49:08.440Z,100084.53
2022-11-16T02:50:07.822Z,100083.85
2022-11-16T02:51:08.290Z,100082.92
2022-11-16T02:52:09.606Z,100082.25
2022-11-16T02:53:10.025Z,100081.87
2022-11-16T02:54:10.187Z,100081.63
2022-11-16T02:55:10.683Z,100081.20
2022-11-16T02:56:11.590Z,100080.62
2022-11-16T02:57:10.980Z,100080.11
2022-11-16T02:58:12.319Z,100079.56
2022-11-16T02:59:17.397Z,100079.22
2022-11-16T03:00:12.168Z,100078.30
2022-11-16T03:00:20.823Z,100083.90
2022-11-16T03:01:21.160Z,100084.41
2022-11-16T03:02:21.236Z,100083.01
2022-11-16T03:03:21.632Z,100081.48
2022-11-16T03:04:22.926Z,100080.30
2022-11-16T03:05:22.373Z,100079.47
2022-11-16T03:06:23.867Z,100078.45
2022-11-16T03:07:24.049Z,100077.10
2022-11-16T03:08:23.365Z,100076.30
2022-11-16T03:09:24.644Z,100074.61
2022-11-16T03:10:24.414Z,100073.52
2022-11-16T03:11:25.715Z,100071.99
2022-11-16T03:12:26.142Z,100071.23
2022-11-16T03:13:27.017Z,100069.54
2022-11-16T03:14:27.799Z,100067.93
2022-11-16T03:15:27.490Z,100066.08
2022-11-16T03:16:28.779Z,100064.05
2022-11-16T03:17:28.341Z,100062.41
2022-11-16T03:18:29.825Z,100060.55
2022-11-16T03:19:30.035Z,100059.28
2022-11-16T03:20:29.514Z,100057.92
2022-11-16T03:20:38.446Z,100055.98
2022-11-16T03:21:39.023Z,100056.33
2022-11-16T03:22:39.808Z,100054.72
2022-11-16T03:23:41.373Z,100054.47
2022-11-16T03:24:41.828Z,100054.22
2022-11-16T03:25:41.130Z,100053.63
2022-11-16T03:26:42.766Z,100053.05
2022-11-16T03:27:42.513Z,100053.05
2022-11-16T03:28:44.030Z,100052.49
2022-11-16T03:29:44.897Z,100052.08
2022-11-16T03:30:44.455Z,100051.16
2022-11-16T03:31:46.290Z,100051.16
2022-11-16T03:32:45.730Z,100051.16
2022-11-16T03:33:47.527Z,100050.73
2022-11-16T03:34:46.793Z,100051.25
2022-11-16T03:35:47.911Z,100051.03
2022-11-16T03:36:48.690Z,100051.13
2022-11-16T03:37:48.390Z,100051.80
2022-11-16T03:38:49.749Z,100051.88
2022-11-16T03:39:49.786Z,100052.56
2022-11-16T03:40:50.347Z,100053.02
2022-11-16T03:41:49.630Z,100053.70
2022-11-16T03:42:50.940Z,100054.37
2022-11-16T03:43:00.085Z,100085.03
2022-11-16T03:44:00.255Z,100085.53
2022-11-16T03:45:01.665Z,100084.35
2022-11-16T03:46:02.121Z,100083.34
2022-11-16T03:47:02.263Z,100082.66
2022-11-16T03:48:01.905Z,100081.65
2022-11-16T03:49:02.314Z,100080.80
2022-11-16T03:50:04.055Z,100079.62
2022-11-16T03:51:04.322Z,100079.37
2022-11-16T03:52:03.348Z,100079.11
2022-11-16T03:53:04.459Z,100079.06
2022-11-16T03:54:04.724Z,100079.22
2022-11-16T03:55:05.413Z,100079.17
2022-11-16T03:56:04.735Z,100079.67
2022-11-16T03:57:05.549Z,100079.46
2022-11-16T03:58:07.149Z,100079.95
2022-11-16T03:59:07.886Z,100079.91
2022-11-16T04:00:07.373Z,100079.91
2022-11-16T04:01:07.775Z,100080.39
2022-11-16T04:02:07.793Z,100080.52
2022-11-16T04:03:08.709Z,100080.76
2022-11-16T04:04:09.058Z,100081.13
2022-11-16T04:05:10.262Z,100080.92
2022-11-16T04:06:09.413Z,100081.16
2022-11-16T04:06:18.549Z,100102.45
2022-11-16T04:07:19.679Z,100102.28
2022-11-16T04:08:18.945Z,100100.00
2022-11-16T04:09:20.207Z,100098.48
2022-11-16T04:10:19.524Z,100097.47
2022-11-16T04:11:20.432Z,100095.73
2022-11-16T04:12:22.124Z,100094.47
2022-11-16T04:13:22.635Z,100093.64
2022-11-16T04:14:22.729Z,100093.01
2022-11-16T04:15:23.160Z,100092.72
2022-11-16T04:16:22.914Z,100092.14
2022-11-16T04:17:24.018Z,100092.03
2022-11-16T04:18:23.819Z,100092.50
2022-11-16T04:19:25.692Z,100092.97
2022-11-16T04:20:24.961Z,100092.86
2022-11-16T04:21:26.545Z,100093.23
2022-11-16T04:22:25.956Z,100093.51
2022-11-16T04:23:26.840Z,100093.81
2022-11-16T04:24:28.456Z,100093.61
2022-11-16T04:25:29.470Z,100093.65
2022-11-16T04:26:29.438Z,100093.48
2022-11-16T04:26:39.566Z,100102.02
2022-11-16T04:27:39.562Z,100102.53
2022-11-16T04:28:40.328Z,100101.69
2022-11-16T04:29:40.885Z,100100.41
2022-11-16T04:30:42.184Z,100099.81
2022-11-16T04:31:41.243Z,100099.36
2022-11-16T04:32:42.441Z,100099.09
2022-11-16T04:33:41.442Z,100098.92
2022-11-16T04:34:43.199Z,100098.97
2022-11-16T04:35:43.680Z,100099.13
2022-11-16T04:36:43.914Z,100099.70
2022-11-16T04:37:44.163Z,100099.62
2022-11-16T04:38:43.574Z,100099.97
2022-11-16T04:39:45.022Z,100100.23
2022-11-16T04:40:45.343Z,100100.77
2022-11-16T04:41:45.966Z,100101.46
2022-11-16T04:42:46.387Z,100102.10
2022-11-16T04:43:46.024Z,100102.98
2022-11-16T04:44:47.649Z,100102.58
2022-11-16T04:45:48.199Z,100103.30
2022-11-16T04:45:58.861Z,100129.32
2022-11-16T04:47:00.535Z,100130.00
2022-11-16T04:48:01.138Z,100128.48
2022-11-16T04:49:01.094Z,100127.30
2022-11-16T04:50:02.471Z,100127.20
2022-11-16T04:51:02.070Z,100126.70
2022-11-16T04:52:02.438Z,100126.70
2022-11-16T04:53:03.079Z,100126.36
2022-11-16T04:54:04.743Z,100126.41
2022-11-16T04:55:04.965Z,100126.24
2022-11-16T04:56:03.968Z,100126.24
2022-11-16T04:57:04.423Z,100126.16
2022-11-16T04:58:05.284Z,100125.89
2022-11-16T04:59:06.312Z,100125.73
2022-11-16T05:00:06.464Z,100125.14
2022-11-16T05:01:05.949Z,100124.89
2022-11-16T05:02:07.477Z,100124.51
2022-11-16T05:03:06.922Z,100124.52
2022-11-16T05:04:07.553Z,100124.22
2022-11-16T05:05:09.509Z,100124.14
2022-11-16T05:06:10.173Z,100123.81
2022-11-16T05:07:09.463Z,100124.44
2022-11-16T05:08:09.804Z,100124.45
2022-11-16T05:08:18.449Z,100145.05
2022-11-16T05:09:18.547Z,100144.96
2022-11-16T05:10:19.204Z,100143.95
2022-11-16T05:11:20.085Z,100142.77
2022-11-16T05:12:21.644Z,100141.34
2022-11-16T05:13:21.289Z,100140.11
2022-11-16T05:14:23.260Z,100138.85
2022-11-16T05:15:23.442Z,100137.76
2022-11-16T05:16:24.439Z,100136.91
2022-11-16T05:17:25.413Z,100136.23
2022-11-16T05:18:25.429Z,100135.73
2022-11-16T05:19:25.745Z,100134.72
2022-11-16T05:20:25.699Z,100133.70
2022-11-16T05:21:26.621Z,100133.62
2022-11-16T05:22:28.564Z,100133.11
2022-11-16T05:23:28.689Z,100132.69
2022-11-16T05:24:29.408Z,100132.61
2022-11-16T05:25:32.498Z,100132.78
2022-11-16T05:26:28.512Z,100132.53
2022-11-16T05:27:28.573Z,100132.70
2022-11-16T05:28:29.666Z,100132.95
2022-11-16T05:29:30.213Z,100132.61
2022-11-16T05:29:38.866Z,100145.37
2022-11-16T05:30:40.338Z,100145.80
2022-11-16T05:31:40.681Z,100144.80
2022-11-16T05:32:40.684Z,100143.88
2022-11-16T05:33:42.228Z,100143.15
2022-11-16T05:34:42.064Z,100142.39
2022-11-16T05:35:43.892Z,100142.06
2022-11-16T05:36:43.471Z,100141.68
2022-11-16T05:37:43.577Z,100141.11
2022-11-16T05:38:44.568Z,100140.81
2022-11-16T05:39:45.392Z,100140.44
2022-11-16T05:40:46.358Z,100140.06
2022-11-16T05:41:47.288Z,100139.66
2022-11-16T05:42:48.539Z,100139.70
2022-11-16T05:43:49.299Z,100139.33
2022-11-16T05:44:50.118Z,100139.45
2022-11-16T05:45:50.226Z,100139.51
2022-11-16T05:46:49.484Z,100139.48
2022-11-16T05:47:51.453Z,100139.63
2022-11-16T05:48:51.378Z,100140.14
2022-11-16T05:49:51.449Z,100140.03
2022-11-16T05:50:52.320Z,100140.30
2022-11-16T05:51:53.219Z,100140.36
2022-11-16T05:52:54.426Z,100140.62
2022-11-16T05:53:03.412Z,100152.36
2022-11-16T05:54:03.441Z,100152.61
2022-11-16T05:55:03.767Z,100152.28
2022-11-16T05:56:05.278Z,100151.64
2022-11-16T05:57:04.807Z,100151.15
2022-11-16T05:58:05.607Z,100150.60
2022-11-16T05:59:06.814Z,100150.23
2022-11-16T06:00:07.724Z,100149.09
2022-11-16T06:01:07.222Z,100148.30
2022-11-16T06:02:08.317Z,100147.34
2022-11-16T06:03:07.514Z,100146.55
2022-11-16T06:04:08.242Z,100145.92
2022-11-16T06:05:08.681Z,100145.14
2022-11-16T06:06:09.007Z,100144.85
2022-11-16T06:07:10.298Z,100144.42
2022-11-16T06:08:09.389Z,100143.05
2022-11-16T06:09:10.579Z,100142.42
2022-11-16T06:10:10.062Z,100141.47
2022-11-16T06:11:11.632Z,100139.91
2022-11-16T06:12:12.003Z,100138.78
2022-11-16T06:13:12.307Z,100137.27
2022-11-16T06:14:11.546Z,100135.89
2022-11-16T06:15:13.123Z,100134.13
2022-11-16T06:16:13.938Z,100132.59
2022-11-16T06:17:13.133Z,100131.55
2022-11-16T06:17:21.728Z,100125.84
2022-11-16T06:18:22.509Z,100125.84
2022-11-16T06:19:28.215Z,100124.58
2022-11-16T06:20:23.242Z,100123.69
2022-11-16T06:21:24.906Z,100122.94
2022-11-16T06:22:24.307Z,100122.44
2022-11-16T06:23:25.404Z,100122.14
2022-11-16T06:24:25.681Z,100121.77
2022-11-16T06:25:26.021Z,100121.90
2022-11-16T06:26:26.187Z,100121.53
2022-11-16T06:27:25.894Z,100121.75
2022-11-16T06:28:26.353Z,100122.22
2022-11-16T06:29:28.084Z,100122.73
2022-11-16T06:30:28.698Z,100122.44
2022-11-16T06:31:30.785Z,100123.03
2022-11-16T06:32:28.556Z,100122.23
2022-11-16T06:33:33.636Z,100121.72
2022-11-16T06:34:29.618Z,100121.27
2022-11-16T06:35:31.559Z,100120.50
2022-11-16T06:36:31.623Z,100120.00
2022-11-16T06:37:32.016Z,100118.98
2022-11-16T06:37:41.144Z,100098.58
2022-11-16T06:38:41.990Z,100098.41
2022-11-16T06:39:43.342Z,100096.94
2022-11-16T06:40:43.962Z,100095.16
2022-11-16T06:41:44.675Z,100093.22
2022-11-16T06:42:44.086Z,100091.03
2022-11-16T06:43:44.276Z,100088.59
2022-11-16T06:44:44.624Z,100085.98
2022-11-16T06:45:46.222Z,100084.25
2022-11-16T06:46:46.978Z,100082.06
2022-11-16T06:47:46.130Z,100079.91
2022-11-16T06:48:47.228Z,100077.69
2022-11-16T06:49:46.231Z,100075.76
2022-11-16T06:50:46.712Z,100073.62
2022-11-16T06:51:47.989Z,100071.77
2022-11-16T06:52:48.004Z,100069.55
2022-11-16T06:53:48.845Z,100068.34
2022-11-16T06:54:47.935Z,100066.75
2022-11-16T06:55:49.705Z,100065.08
2022-11-16T06:56:49.157Z,100063.23
2022-11-16T06:57:49.703Z,100062.28
2022-11-16T06:58:53.220Z,100061.19
2022-11-16T06:59:50.959Z,100060.27
2022-11-16T07:00:52.834Z,100059.73
2022-11-16T07:01:01.884Z,100053.53
2022-11-16T07:02:02.495Z,100053.14
2022-11-16T07:03:02.673Z,100052.97
2022-11-16T07:04:04.554Z,100052.89
2022-11-16T07:05:04.372Z,100052.64
2022-11-16T07:06:04.642Z,100052.69
2022-11-16T07:07:05.269Z,100052.48
2022-11-16T07:08:05.970Z,100052.23
2022-11-16T07:09:07.878Z,100052.37
2022-11-16T07:10:08.361Z,100052.59
2022-11-16T07:11:08.348Z,100053.09
2022-11-16T07:12:10.215Z,100053.91
2022-11-16T07:13:09.564Z,100054.59
2022-11-16T07:14:11.179Z,100055.70
2022-11-16T07:15:11.438Z,100057.23
2022-11-16T07:16:12.269Z,100058.56
2022-11-16T07:17:12.015Z,100060.98
2022-11-16T07:18:12.193Z,100063.39
2022-11-16T07:19:14.825Z,100065.77
2022-11-16T07:20:13.923Z,100068.40
2022-11-16T07:21:13.019Z,100071.09
2022-11-16T07:22:13.643Z,100073.80
2022-11-16T07:23:15.143Z,100076.53
2022-11-16T07:24:14.703Z,100078.94
2022-11-16T07:25:16.097Z,100081.64
2022-11-16T07:25:25.211Z,100122.16
2022-11-16T07:26:24.922Z,100122.32
2022-11-16T07:27:26.636Z,100122.63
2022-11-16T07:28:27.096Z,100122.41
2022-11-16T07:29:27.514Z,100122.48
2022-11-16T07:30:27.228Z,100123.11
2022-11-16T07:31:28.001Z,100123.41
2022-11-16T07:32:29.678Z,100123.49
2022-11-16T07:33:29.232Z,100123.77
2022-11-16T07:34:30.998Z,100124.19
2022-11-16T07:35:31.523Z,100124.81
2022-11-16T07:36:31.837Z,100125.06
2022-11-16T07:37:32.185Z,100126.16
2022-11-16T07:38:33.884Z,100127.61
2022-11-16T07:39:32.126Z,100128.48
2022-11-16T07:40:33.629Z,100130.79
2022-11-16T07:41:32.831Z,100132.34
2022-11-16T07:42:33.044Z,100133.85
2022-11-16T07:43:34.681Z,100135.23
2022-11-16T07:44:34.891Z,100136.70
2022-11-16T07:44:43.561Z,100167.45
2022-11-16T07:45:43.820Z,100167.45
2022-11-16T07:46:47.580Z,100167.13
2022-11-16T07:47:44.879Z,100166.37
2022-11-16T07:48:45.019Z,100165.94
2022-11-16T07:49:45.431Z,100165.94
2022-11-16T07:50:45.874Z,100165.94
2022-11-16T07:51:47.087Z,100166.28
2022-11-16T07:52:47.682Z,100166.70
2022-11-16T07:53:48.219Z,100167.63
2022-11-16T07:54:48.160Z,100168.34
2022-11-16T07:55:49.864Z,100168.90
2022-11-16T07:56:49.393Z,100170.04
2022-11-16T07:57:53.417Z,100171.39
2022-11-16T07:58:50.385Z,100172.70
2022-11-16T07:59:52.129Z,100174.22
2022-11-16T08:00:52.178Z,100175.36
2022-11-16T08:01:51.502Z,100177.00
2022-11-16T08:02:51.994Z,100178.48
2022-11-16T08:03:52.675Z,100179.84
2022-11-16T08:04:54.184Z,100181.39
2022-11-16T08:05:53.964Z,100183.16
2022-11-16T08:06:02.674Z,100211.53
2022-11-16T08:07:04.578Z,100211.69
2022-11-16T08:08:03.994Z,100210.85
2022-11-16T08:09:05.244Z,100210.81
2022-11-16T08:10:05.536Z,100210.72
2022-11-16T08:11:04.573Z,100211.19
2022-11-16T08:12:06.459Z,100210.94
2022-11-16T08:13:06.685Z,100211.19
2022-11-16T08:14:07.315Z,100211.59
2022-11-16T08:15:07.327Z,100212.33
2022-11-16T08:16:06.521Z,100213.00
2022-11-16T08:17:07.128Z,100214.01
2022-11-16T08:18:07.725Z,100214.68
2022-11-16T08:19:08.529Z,100216.28
2022-11-16T08:20:10.433Z,100217.38
2022-11-16T08:21:10.197Z,100219.52
2022-11-16T08:22:12.141Z,100221.04
2022-11-16T08:23:11.622Z,100222.22
2022-11-16T08:24:12.768Z,100223.98
2022-11-16T08:25:12.207Z,100225.33
2022-11-16T08:27:25.939Z,100226.34
2022-11-16T08:28:25.507Z,100227.23
2022-11-16T08:29:26.998Z,100227.89
2022-11-16T08:30:26.542Z,100228.36
2022-11-16T08:30:35.202Z,100243.59
2022-11-16T08:31:36.275Z,100243.93
2022-11-16T08:32:36.913Z,100243.48
2022-11-16T08:33:36.819Z,100242.72
2022-11-16T08:34:37.358Z,100242.53
2022-11-16T08:35:38.571Z,100241.91
2022-11-16T08:36:37.921Z,100241.69
2022-11-16T08:37:39.782Z,100241.31
2022-11-16T08:38:40.137Z,100241.22
2022-11-16T08:39:40.025Z,100241.09
2022-11-16T08:40:40.074Z,100241.34
2022-11-16T08:41:40.592Z,100241.08
2022-11-16T08:42:43.838Z,100240.94
2022-11-16T08:43:42.123Z,100241.15
2022-11-16T08:44:43.423Z,100241.23
2022-11-16T08:45:43.503Z,100241.13
2022-11-16T08:46:42.938Z,100241.53
2022-11-16T08:47:43.635Z,100241.91
2022-11-16T08:48:43.943Z,100241.52
2022-11-16T08:49:49.400Z,100240.84
2022-11-16T08:51:15.418Z,100240.29
2022-11-16T08:51:45.637Z,100238.59
2022-11-16T08:52:45.805Z,100236.77
2022-11-16T08:53:46.018Z,100235.66
2022-11-16T08:54:48.024Z,100234.04
2022-11-16T08:54:57.127Z,100200.48
2022-11-16T08:55:57.547Z,100200.40
2022-11-16T08:56:57.809Z,100200.31
2022-11-16T08:57:59.564Z,100199.72
2022-11-16T08:58:59.674Z,100199.17
2022-11-16T09:00:00.092Z,100198.66
2022-11-16T09:01:01.544Z,100198.15
2022-11-16T09:02:02.147Z,100197.42
2022-11-16T09:03:01.497Z,100196.41
2022-11-16T09:04:02.815Z,100195.59
2022-11-16T09:05:01.689Z,100194.49
2022-11-16T09:06:02.107Z,100193.47
2022-11-16T09:07:02.781Z,100192.64
2022-11-16T09:08:02.993Z,100192.01
2022-11-16T09:09:03.449Z,100191.39
2022-11-16T09:10:03.618Z,100190.48
2022-11-16T09:11:04.090Z,100189.74
2022-11-16T09:12:04.547Z,100189.00
2022-11-16T09:13:06.095Z,100188.34
2022-11-16T09:14:06.544Z,100188.06
2022-11-16T09:15:07.261Z,100187.15
2022-11-16T09:16:06.688Z,100186.53
2022-11-16T09:17:07.096Z,100185.67
2022-11-16T09:18:07.334Z,100184.30
2022-11-16T09:18:15.983Z,100172.58
2022-11-16T09:19:17.044Z,100172.16
2022-11-16T09:20:17.700Z,100171.53
2022-11-16T09:21:19.080Z,100170.23
2022-11-16T09:22:18.530Z,100168.98
2022-11-16T09:23:24.876Z,100166.93
2022-11-16T09:24:19.144Z,100164.62
2022-11-16T09:25:20.719Z,100162.31
2022-11-16T09:26:20.050Z,100158.82
2022-11-16T09:27:20.696Z,100156.16
2022-11-16T09:28:21.446Z,100152.88
2022-11-16T09:29:21.920Z,100149.05
2022-11-16T09:30:22.609Z,100146.09
2022-11-16T09:31:23.776Z,100142.27
2022-11-16T09:32:23.462Z,100138.78
2022-11-16T09:33:23.979Z,100135.41
2022-11-16T09:34:25.759Z,100132.72
2022-11-16T09:35:24.652Z,100129.96
2022-11-16T09:36:26.668Z,100128.05
2022-11-16T09:37:27.139Z,100126.38
2022-11-16T09:38:40.685Z,100124.53
2022-11-16T09:39:31.160Z,100122.91
2022-11-16T09:40:27.283Z,100121.50
2022-11-16T09:41:27.769Z,100120.50
2022-11-16T09:41:36.414Z,100101.87
2022-11-16T09:42:37.786Z,100101.20
2022-11-16T09:43:42.468Z,100100.48
2022-11-16T09:44:37.291Z,100099.72
2022-11-16T09:45:38.283Z,100099.38
2022-11-16T09:46:39.239Z,100098.31
2022-11-16T09:47:40.759Z,100097.30
2022-11-16T09:48:41.413Z,100096.99
2022-11-16T09:49:41.285Z,100096.70
2022-11-16T09:50:41.383Z,100096.90
2022-11-16T09:51:42.206Z,100096.38
2022-11-16T09:52:42.340Z,100096.89
2022-11-16T09:53:44.334Z,100097.06
2022-11-16T09:54:45.288Z,100097.52
2022-11-16T09:55:45.554Z,100097.89
2022-11-16T09:56:45.711Z,100098.65
2022-11-16T09:57:46.358Z,100099.11
2022-11-16T09:58:45.978Z,100099.44
2022-11-16T09:59:46.921Z,100100.16
2022-11-16T10:00:47.624Z,100099.97
2022-11-16T10:01:47.713Z,100100.02
2022-11-16T10:02:48.495Z,100100.12
2022-11-16T10:03:49.672Z,100099.83
2022-11-16T10:04:52.489Z,100100.45
2022-11-16T10:04:58.885Z,100096.08
2022-11-16T10:05:58.587Z,100096.25
2022-11-16T10:06:59.927Z,100096.00
2022-11-16T10:07:59.496Z,100096.38
2022-11-16T10:09:00.505Z,100096.39
2022-11-16T10:09:59.740Z,100096.60
2022-11-16T10:11:01.645Z,100096.61
2022-11-16T10:12:00.663Z,100096.83
2022-11-16T10:13:02.323Z,100096.74
2022-11-16T10:14:04.479Z,100096.07
2022-11-16T10:15:02.364Z,100095.52
2022-11-16T10:16:03.439Z,100095.56
2022-11-16T10:17:04.307Z,100095.98
2022-11-16T10:18:03.386Z,100095.89
2022-11-16T10:19:05.080Z,100095.89
2022-11-16T10:20:05.961Z,100095.77
2022-11-16T10:21:05.515Z,100096.17
2022-11-16T10:22:07.184Z,100095.37
2022-11-16T10:23:07.781Z,100095.14
2022-11-16T10:24:07.912Z,100094.59
2022-11-16T10:25:08.725Z,100093.86
2022-11-16T10:25:18.329Z,100085.56
2022-11-16T10:26:19.219Z,100084.84
2022-11-16T10:27:22.263Z,100084.50
2022-11-16T10:28:20.779Z,100083.49
2022-11-16T10:29:22.003Z,100082.36
2022-11-16T10:30:21.835Z,100081.59
2022-11-16T10:31:22.543Z,100080.83
2022-11-16T10:32:23.448Z,100079.60
2022-11-16T10:33:25.453Z,100078.58
2022-11-16T10:34:25.664Z,100077.77
2022-11-16T10:35:25.398Z,100076.28
2022-11-16T10:36:26.247Z,100075.27
2022-11-16T10:37:28.183Z,100074.20
2022-11-16T10:38:27.443Z,100073.76
2022-11-16T10:39:29.095Z,100072.31
2022-11-16T10:40:29.891Z,100070.93
2022-11-16T10:41:30.816Z,100070.21
2022-11-16T10:42:30.354Z,100069.03
2022-11-16T10:43:31.963Z,100067.44
2022-11-16T10:44:30.906Z,100066.59
2022-11-16T10:45:31.936Z,100065.52
2022-11-16T10:46:30.951Z,100064.77
2022-11-16T10:47:33.966Z,100064.02
2022-11-16T10:48:31.236Z,100063.01
2022-11-16T10:49:31.973Z,100062.00
2022-11-16T10:49:40.665Z,100046.63
2022-11-16T10:50:41.437Z,100046.03
2022-11-16T10:51:41.749Z,100046.36
2022-11-16T10:52:42.357Z,100046.44
2022-11-16T10:53:44.020Z,100046.56
2022-11-16T10:54:44.525Z,100046.26
2022-11-16T10:55:44.706Z,100046.54
2022-11-16T10:56:46.163Z,100046.56
2022-11-16T10:57:46.553Z,100045.91
2022-11-16T10:58:46.175Z,100045.62
2022-11-16T10:59:46.522Z,100044.84
2022-11-16T11:00:46.884Z,100044.27
2022-11-16T11:01:47.524Z,100043.56
2022-11-16T11:02:48.768Z,100042.10
2022-11-16T11:03:49.333Z,100041.35
2022-11-16T11:04:49.710Z,100039.19
2022-11-16T11:05:48.891Z,100037.51